Time;durP1;ratioP1;P1;durP2;ratioP2;P2;SDS_P1;SDS_P2;PMS_P1;PMS_P2;Temp;Humidity;BMP_temperature;BMP_pressure;BME280_temperature;BME280_humidity;BME280_pressure;Samples;Min_cycle;Max_cycle;Signal;HPM_P1;HPM_P2
2023/12/15 00:02:03;;;;;;;0.98;0.60;;;;;;;9.04;100.00;99541.09;5160546;27;20053;-66
2023/12/15 00:04:28;;;;;;;2.22;0.60;;;;;;;9.05;100.00;99545.38;5161518;27;20045;-66
2023/12/15 00:06:54;;;;;;;1.48;0.68;;;;;;;9.06;100.00;99546.22;5161153;27;20054;-66
2023/12/15 00:09:19;;;;;;;0.77;0.70;;;;;;;9.05;100.00;99550.66;5161178;27;20046;-64
2023/12/15 00:11:45;;;;;;;1.02;0.88;;;;;;;9.08;100.00;99553.00;5161364;27;20074;-65
2023/12/15 00:14:10;;;;;;;2.25;0.90;;;;;;;9.08;100.00;99560.09;5161185;27;20034;-64
2023/12/15 00:16:35;;;;;;;0.57;0.52;;;;;;;9.04;100.00;99569.31;5160925;27;20043;-66
2023/12/15 00:19:01;;;;;;;0.68;0.52;;;;;;;9.03;100.00;99571.13;5160771;27;20071;-64
2023/12/15 00:21:26;;;;;;;0.70;0.50;;;;;;;9.08;100.00;99578.59;5160641;27;20251;-66
2023/12/15 00:23:52;;;;;;;0.80;0.60;;;;;;;9.05;100.00;99585.00;5160879;27;20328;-65
2023/12/15 00:26:18;;;;;;;0.50;0.43;;;;;;;9.02;100.00;99587.97;5161010;27;20382;-64
2023/12/15 00:28:43;;;;;;;0.40;0.40;;;;;;;9.02;100.00;99590.59;5160358;27;20034;-66
2023/12/15 00:31:08;;;;;;;0.57;0.38;;;;;;;9.04;100.00;99598.38;5160169;27;20038;-66
2023/12/15 00:33:34;;;;;;;0.93;0.77;;;;;;;9.02;100.00;99601.16;5160059;27;20057;-66
2023/12/15 00:36:00;;;;;;;0.60;0.60;;;;;;;9.05;100.00;99605.31;5159797;27;20057;-66
2023/12/15 00:38:25;;;;;;;0.43;0.40;;;;;;;9.02;100.00;99611.72;5159950;27;20232;-64
2023/12/15 00:40:51;;;;;;;2.53;0.98;;;;;;;9.07;100.00;99617.38;5159806;27;20039;-66
2023/12/15 00:43:16;;;;;;;1.55;0.90;;;;;;;9.07;100.00;99625.28;5159756;27;20086;-64
2023/12/15 00:45:42;;;;;;;1.02;0.60;;;;;;;9.16;100.00;99626.19;5160500;27;20038;-65
2023/12/15 00:48:07;;;;;;;1.35;0.60;;;;;;;9.16;100.00;99627.00;5159707;27;20035;-64
2023/12/15 00:50:33;;;;;;;0.93;0.75;;;;;;;9.16;100.00;99631.47;5159504;27;20347;-66
2023/12/15 00:52:58;;;;;;;1.52;0.85;;;;;;;9.22;100.00;99641.41;5159658;27;20324;-65
2023/12/15 00:55:24;;;;;;;1.73;0.80;;;;;;;9.22;100.00;99641.41;5160604;27;20319;-64
2023/12/15 00:57:49;;;;;;;0.63;0.50;;;;;;;9.26;100.00;99640.94;5160127;27;20083;-64
2023/12/15 01:00:15;;;;;;;1.33;0.60;;;;;;;9.26;100.00;99635.66;5160616;27;20049;-66
2023/12/15 01:02:41;;;;;;;2.15;0.85;;;;;;;9.31;100.00;99627.25;5160018;27;20042;-64
2023/12/15 01:05:06;;;;;;;0.55;0.40;;;;;;;9.36;100.00;99627.63;5159885;27;20216;-64
2023/12/15 01:07:32;;;;;;;0.52;0.47;;;;;;;9.36;100.00;99626.78;5160008;27;20038;-65
2023/12/15 01:09:57;;;;;;;0.68;0.60;;;;;;;9.39;100.00;99632.63;5160371;27;20046;-64
2023/12/15 01:12:23;;;;;;;1.85;0.60;;;;;;;9.37;100.00;99634.59;5159892;27;20035;-66
2023/12/15 01:14:49;;;;;;;1.05;0.60;;;;;;;9.40;100.00;99644.00;5159687;27;20332;-66
2023/12/15 01:17:14;;;;;;;1.17;0.82;;;;;;;9.43;100.00;99647.16;5160018;27;20026;-64
2023/12/15 01:19:39;;;;;;;0.63;0.50;;;;;;;9.44;100.00;99651.47;5160193;27;20079;-64
2023/12/15 01:22:05;;;;;;;0.38;0.30;;;;;;;9.33;100.00;99654.34;5159502;27;20080;-64
2023/12/15 01:24:30;;;;;;;1.10;0.38;;;;;;;9.29;100.00;99655.66;5159615;27;20070;-66
2023/12/15 01:26:56;;;;;;;1.20;0.40;;;;;;;9.26;100.00;99661.25;5159786;27;20038;-66
2023/12/15 01:29:21;;;;;;;0.45;0.40;;;;;;;9.27;100.00;99650.53;5160059;27;20015;-64
2023/12/15 01:31:47;;;;;;;0.38;0.30;;;;;;;9.23;100.00;99657.09;5159896;27;20051;-66
2023/12/15 01:34:12;;;;;;;1.20;1.10;;;;;;;9.21;100.00;99655.59;5159592;27;20046;-66
2023/12/15 01:36:37;;;;;;;0.47;0.43;;;;;;;9.20;100.00;99661.88;5149348;27;20209;-64
2023/12/15 01:39:03;;;;;;;0.40;0.40;;;;;;;9.16;100.00;99669.28;5159302;27;20043;-64
2023/12/15 01:41:30;;;;;;;0.30;0.30;;;;;;;9.09;100.00;99676.16;5161477;27;20043;-64
2023/12/15 01:43:56;;;;;;;0.30;0.30;;;;;;;9.13;100.00;99676.69;5162724;27;20038;-67
2023/12/15 01:46:21;;;;;;;0.77;0.30;;;;;;;9.12;100.00;99680.31;5163461;27;20037;-66
2023/12/15 01:48:46;;;;;;;0.22;0.22;;;;;;;9.11;100.00;99684.75;5162897;27;20034;-66
2023/12/15 01:51:13;;;;;;;0.98;0.50;;;;;;;9.10;100.00;99690.19;5163204;27;20035;-64
2023/12/15 01:53:39;;;;;;;0.30;0.30;;;;;;;9.11;100.00;99687.41;5163127;27;20035;-66
2023/12/15 01:56:08;;;;;;;0.73;0.38;;;;;;;9.09;100.00;99696.47;5163870;27;20030;-64
2023/12/15 01:58:33;;;;;;;0.73;0.52;;;;;;;9.09;100.00;99696.47;5163037;27;20027;-66
2023/12/15 02:00:59;;;;;;;1.83;0.45;;;;;;;9.12;100.00;99704.06;5163541;27;20057;-66
2023/12/15 02:03:24;;;;;;;0.50;0.35;;;;;;;9.12;100.00;99717.28;5163245;27;20034;-64
2023/12/15 02:05:50;;;;;;;0.90;0.50;;;;;;;9.12;100.00;99712.00;5163168;27;20050;-66
2023/12/15 02:08:15;;;;;;;1.70;0.60;;;;;;;9.10;100.00;99714.78;5163388;27;20053;-64
2023/12/15 02:10:40;;;;;;;1.48;0.73;;;;;;;9.09;100.00;99720.22;5164242;27;20030;-65
2023/12/15 02:13:07;;;;;;;1.88;0.45;;;;;;;9.11;100.00;99712.97;5163603;27;20047;-66
2023/12/15 02:15:32;;;;;;;1.10;0.55;;;;;;;9.13;100.00;99718.94;5163751;27;20050;-66
2023/12/15 02:17:58;;;;;;;0.77;0.77;;;;;;;9.10;100.00;99719.25;5163119;27;20549;-65
2023/12/15 02:20:23;;;;;;;1.05;0.60;;;;;;;9.06;100.00;99717.91;5162257;27;20042;-64
2023/12/15 02:22:49;;;;;;;1.35;0.52;;;;;;;9.02;100.00;99720.00;5162107;27;20271;-64
2023/12/15 02:25:14;;;;;;;0.50;0.50;;;;;;;9.01;100.00;99728.91;5162693;27;20341;-64
2023/12/15 02:27:40;;;;;;;0.82;0.60;;;;;;;8.99;100.00;99732.69;5163214;27;20022;-65
2023/12/15 02:30:06;;;;;;;1.30;0.70;;;;;;;8.98;100.00;99734.50;5163287;27;20253;-66
2023/12/15 02:32:32;;;;;;;1.48;0.60;;;;;;;9.00;100.00;99739.63;5162171;27;20093;-66
2023/12/15 02:34:57;;;;;;;1.35;1.00;;;;;;;9.03;100.00;99739.34;5161973;27;20233;-66
2023/12/15 02:37:23;;;;;;;0.80;0.40;;;;;;;9.03;100.00;99748.09;5162357;27;20075;-66
2023/12/15 02:39:48;;;;;;;2.08;0.40;;;;;;;9.04;100.00;99760.31;5163042;27;20039;-64
2023/12/15 02:42:13;;;;;;;0.30;0.30;;;;;;;9.05;100.00;99771.69;5162655;27;20332;-66
2023/12/15 02:44:42;;;;;;;0.68;0.57;;;;;;;9.07;100.00;99767.09;5162159;27;20102;-65
2023/12/15 02:47:08;;;;;;;0.52;0.50;;;;;;;9.09;100.00;99759.84;5162485;27;20066;-63
2023/12/15 02:49:40;;;;;;;1.90;0.80;;;;;;;9.00;100.00;99761.59;5162721;27;20189;-65
2023/12/15 02:52:06;;;;;;;0.95;0.65;;;;;;;9.12;100.00;99773.59;5161749;27;20046;-66
2023/12/15 02:54:33;;;;;;;1.15;0.57;;;;;;;9.12;100.00;99770.94;5162111;27;20468;-66
2023/12/15 02:56:58;;;;;;;2.03;0.90;;;;;;;9.11;100.00;99774.56;5161820;27;20068;-65
2023/12/15 02:59:24;;;;;;;2.63;0.60;;;;;;;9.08;100.00;99777.50;5162040;27;20046;-66
2023/12/15 03:01:49;;;;;;;0.77;0.50;;;;;;;9.12;100.00;99783.31;5161327;27;20252;-63
2023/12/15 03:04:15;;;;;;;0.73;0.50;;;;;;;9.18;100.00;99785.34;5162601;27;20090;-66
2023/12/15 03:06:40;;;;;;;1.58;0.57;;;;;;;9.17;100.00;99779.25;5162970;27;20049;-66
2023/12/15 03:09:05;;;;;;;1.20;0.52;;;;;;;9.16;100.00;99785.50;5162049;27;20037;-66
2023/12/15 03:11:31;;;;;;;0.50;0.50;;;;;;;9.16;100.00;99790.78;5161839;27;20051;-66
2023/12/15 03:13:56;;;;;;;0.50;0.50;;;;;;;9.18;100.00;99791.47;5161628;27;20043;-63
2023/12/15 03:16:25;;;;;;;1.02;0.60;;;;;;;9.17;100.00;99797.72;5161996;27;20398;-65
2023/12/15 03:18:51;;;;;;;0.85;0.60;;;;;;;9.16;100.00;99801.34;5161722;27;20172;-66
2023/12/15 03:21:16;;;;;;;0.68;0.60;;;;;;;9.19;100.00;99797.59;5161974;27;20149;-66
2023/12/15 03:23:42;;;;;;;1.02;0.88;;;;;;;9.16;100.00;99806.63;5162097;27;20316;-64
2023/12/15 03:26:07;;;;;;;1.70;0.60;;;;;;;9.24;100.00;99808.53;5161449;27;20047;-66
2023/12/15 03:28:33;;;;;;;1.30;0.85;;;;;;;9.29;100.00;99817.66;5161438;27;20228;-66
2023/12/15 03:30:58;;;;;;;1.70;1.10;;;;;;;9.28;100.00;99813.34;5162102;27;20308;-66
2023/12/15 03:33:27;;;;;;;1.73;0.95;;;;;;;9.30;100.00;99818.50;5161465;27;20049;-66
2023/12/15 03:35:52;;;;;;;2.13;1.27;;;;;;;9.31;100.00;99825.44;5161514;27;20136;-66
2023/12/15 03:38:19;;;;;;;2.67;1.50;;;;;;;9.38;100.00;99841.53;5160732;27;20043;-66
2023/12/15 03:40:45;;;;;;;1.23;1.00;;;;;;;9.39;100.00;99844.03;5161230;27;20052;-64
2023/12/15 03:43:10;;;;;;;1.95;1.42;;;;;;;9.44;100.00;99841.75;5160940;27;20026;-64
2023/12/15 03:45:36;;;;;;;2.05;1.52;;;;;;;9.37;100.00;99842.53;5161252;27;20031;-65
2023/12/15 03:48:01;;;;;;;3.33;2.08;;;;;;;9.36;100.00;99852.22;5161395;27;20038;-66
2023/12/15 03:50:27;;;;;;;1.70;1.60;;;;;;;9.42;100.00;99854.31;5161468;27;20071;-65
2023/12/15 03:52:52;;;;;;;2.40;2.20;;;;;;;9.39;100.00;99857.25;5160473;27;20228;-63
2023/12/15 03:55:18;;;;;;;4.13;2.45;;;;;;;9.42;100.00;99853.47;5161438;27;20049;-65
2023/12/15 03:57:43;;;;;;;1.73;1.30;;;;;;;9.43;100.00;99857.78;5161151;27;20031;-66
2023/12/15 04:00:09;;;;;;;1.17;1.08;;;;;;;9.34;100.00;99856.84;5160370;27;20045;-64
2023/12/15 04:02:35;;;;;;;1.42;0.80;;;;;;;9.35;100.00;99868.25;5160997;27;20048;-66
2023/12/15 04:05:00;;;;;;;1.98;0.88;;;;;;;9.34;100.00;99869.22;5161017;27;20233;-66
2023/12/15 04:07:26;;;;;;;1.92;0.93;;;;;;;9.34;100.00;99872.69;5160174;27;20031;-67
2023/12/15 04:09:51;;;;;;;1.58;0.93;;;;;;;9.20;100.00;99871.41;5160957;27;20270;-66
2023/12/15 04:12:17;;;;;;;2.10;0.90;;;;;;;9.18;100.00;99867.25;5160664;27;20381;-64
2023/12/15 04:14:43;;;;;;;1.17;0.60;;;;;;;9.12;100.00;99868.69;5160413;27;20221;-64
2023/12/15 04:17:08;;;;;;;1.23;0.70;;;;;;;9.07;100.00;99870.94;5159760;27;20035;-65
2023/12/15 04:19:34;;;;;;;0.70;0.55;;;;;;;9.00;100.00;99872.53;5160163;27;20219;-64
2023/12/15 04:21:59;;;;;;;3.65;1.25;;;;;;;8.91;100.00;99862.84;5159667;27;20339;-66
2023/12/15 04:24:25;;;;;;;2.22;1.70;;;;;;;8.96;100.00;99869.34;5160077;27;20038;-64
2023/12/15 04:26:51;;;;;;;3.17;1.63;;;;;;;8.91;100.00;99863.69;5160813;27;20102;-65
2023/12/15 04:29:17;;;;;;;2.75;1.73;;;;;;;8.97;100.00;99864.91;5160928;27;20034;-66
2023/12/15 04:31:43;;;;;;;2.33;2.13;;;;;;;9.04;100.00;99867.78;5160887;27;20040;-64
2023/12/15 04:34:09;;;;;;;3.42;1.88;;;;;;;9.11;100.00;99874.13;5159693;27;20041;-64
2023/12/15 04:36:34;;;;;;;2.63;1.58;;;;;;;9.07;100.00;99876.22;5159618;27;20331;-66
2023/12/15 04:39:00;;;;;;;2.38;1.60;;;;;;;9.06;100.00;99879.00;5159783;27;20384;-64
2023/12/15 04:41:28;;;;;;;3.80;1.98;;;;;;;9.11;100.00;99879.41;5159723;27;20240;-64
2023/12/15 04:43:54;;;;;;;3.83;2.13;;;;;;;9.13;100.00;99878.28;5159443;27;20042;-66
2023/12/15 04:46:23;;;;;;;3.17;1.90;;;;;;;9.12;100.00;99873.13;5159778;27;20347;-66
2023/12/15 04:48:48;;;;;;;2.50;1.83;;;;;;;9.07;100.00;99875.41;5160287;27;20027;-65
2023/12/15 04:51:14;;;;;;;2.15;1.58;;;;;;;9.00;100.00;99887.53;5160583;27;20293;-64
2023/12/15 04:53:39;;;;;;;3.53;1.60;;;;;;;9.03;100.00;99889.88;5160345;27;20043;-64
2023/12/15 04:56:05;;;;;;;2.17;1.58;;;;;;;8.99;100.00;99893.78;5160250;27;20277;-65
2023/12/15 04:58:30;;;;;;;2.60;1.65;;;;;;;8.98;100.00;99900.06;5159414;27;20090;-64
2023/12/15 05:00:56;;;;;;;2.33;1.42;;;;;;;8.94;100.00;99903.00;5159544;27;20351;-64
2023/12/15 05:03:22;;;;;;;0.90;0.85;;;;;;;8.94;100.00;99904.81;5159587;27;20049;-65
2023/12/15 05:05:48;;;;;;;1.50;1.10;;;;;;;8.94;100.00;99905.63;5160821;27;20200;-66
2023/12/15 05:08:13;;;;;;;1.52;1.35;;;;;;;8.93;100.00;99911.91;5160359;27;20029;-66
2023/12/15 05:10:39;;;;;;;1.73;1.42;;;;;;;8.88;100.00;99919.44;5159891;27;20034;-64
2023/12/15 05:13:04;;;;;;;1.58;1.27;;;;;;;8.87;100.00;99936.25;5159371;27;20312;-66
2023/12/15 05:15:30;;;;;;;1.15;1.05;;;;;;;8.78;100.00;99931.84;5159774;27;20042;-66
2023/12/15 05:17:55;;;;;;;1.15;0.95;;;;;;;8.74;100.00;99951.59;5160216;27;20201;-64
2023/12/15 05:20:21;;;;;;;0.80;0.80;;;;;;;8.68;100.00;99944.25;5160163;27;20035;-64
2023/12/15 05:22:47;;;;;;;0.82;0.80;;;;;;;8.75;100.00;99950.63;5160167;27;20103;-65
2023/12/15 05:25:13;;;;;;;0.80;0.80;;;;;;;8.84;100.00;99951.56;5159933;27;20075;-66
2023/12/15 05:27:38;;;;;;;1.52;1.42;;;;;;;8.83;100.00;99956.00;5160528;27;20030;-65
2023/12/15 05:30:04;;;;;;;1.77;1.20;;;;;;;8.85;100.00;99945.28;5160140;27;20026;-65
2023/12/15 05:32:29;;;;;;;2.05;1.25;;;;;;;8.88;100.00;99940.56;5159344;27;20031;-64
2023/12/15 05:34:55;;;;;;;3.53;2.20;;;;;;;8.91;100.00;99940.25;5159139;27;20052;-66
2023/12/15 05:37:20;;;;;;;2.42;1.52;;;;;;;8.93;100.00;99951.50;5159252;27;20041;-66
2023/12/15 05:39:46;;;;;;;4.25;2.75;;;;;;;8.97;100.00;99954.69;5159780;27;20031;-67
2023/12/15 05:42:11;;;;;;;4.53;2.88;;;;;;;8.96;100.00;99960.94;5160210;27;20028;-66
2023/12/15 05:44:40;;;;;;;3.72;2.20;;;;;;;9.00;100.00;99964.13;5159906;27;20019;-67
2023/12/15 05:47:06;;;;;;;2.72;2.08;;;;;;;9.02;100.00;99978.03;5159840;27;20031;-66
2023/12/15 05:49:34;;;;;;;2.67;2.05;;;;;;;9.02;100.00;99976.22;5159018;27;20081;-65
2023/12/15 05:51:59;;;;;;;4.47;1.60;;;;;;;8.97;100.00;99981.09;5159034;27;20038;-65
2023/12/15 05:54:25;;;;;;;2.05;1.70;;;;;;;8.83;100.00;99977.13;5159081;27;20023;-64
2023/12/15 05:56:50;;;;;;;1.98;1.73;;;;;;;8.93;100.00;99974.44;5159353;27;20099;-67
2023/12/15 05:59:15;;;;;;;2.40;2.20;;;;;;;9.02;100.00;99968.28;5159129;27;20098;-67
2023/12/15 06:01:41;;;;;;;2.72;1.60;;;;;;;9.09;100.00;99990.50;5159689;27;20046;-65
2023/12/15 06:04:06;;;;;;;1.85;1.63;;;;;;;9.16;100.00;99993.38;5159331;27;20038;-66
2023/12/15 06:06:32;;;;;;;2.78;1.85;;;;;;;9.17;100.00;100013.53;5159741;27;20034;-63
2023/12/15 06:08:57;;;;;;;2.35;1.80;;;;;;;9.20;100.00;100023.81;5159099;27;20031;-64
2023/12/15 06:11:24;;;;;;;2.50;1.55;;;;;;;9.18;100.00;100021.31;5159071;27;20058;-64
2023/12/15 06:13:49;;;;;;;3.25;2.33;;;;;;;9.15;100.00;100026.91;5159560;27;20031;-66
2023/12/15 06:16:19;;;;;;;5.15;2.60;;;;;;;9.11;100.00;100012.31;5160054;27;20095;-64
2023/12/15 06:18:45;;;;;;;3.30;2.28;;;;;;;9.18;100.00;100013.38;5159697;27;20051;-67
2023/12/15 06:21:22;;;;;;;4.35;2.10;;;;;;;9.24;100.00;100025.19;5159487;27;20036;-64
2023/12/15 06:23:47;;;;;;;4.47;3.10;;;;;;;9.26;100.00;100036.44;5159141;27;20030;-66
2023/12/15 06:26:19;;;;;;;5.90;3.13;;;;;;;9.30;100.00;100045.75;5159513;27;20062;-66
2023/12/15 06:28:45;;;;;;;5.65;4.20;;;;;;;9.26;100.00;100047.84;5161469;27;20057;-64
2023/12/15 06:31:11;;;;;;;12.13;7.00;;;;;;;9.26;100.00;100039.09;5163368;27;20038;-66
2023/12/15 06:33:36;;;;;;;10.13;6.40;;;;;;;9.33;100.00;100050.72;5163183;27;20030;-65
2023/12/15 06:36:01;;;;;;;6.03;3.63;;;;;;;9.37;100.00;100053.94;5162851;27;20237;-64
2023/12/15 06:38:27;;;;;;;6.13;5.30;;;;;;;9.41;100.00;100055.31;5163302;27;20035;-66
2023/12/15 06:40:52;;;;;;;3.78;3.00;;;;;;;9.42;100.00;100056.97;5162707;27;20047;-65
2023/12/15 06:43:18;;;;;;;2.72;1.50;;;;;;;9.43;100.00;100056.00;5162221;27;20034;-64
2023/12/15 06:45:43;;;;;;;1.83;1.60;;;;;;;9.46;100.00;100061.81;5162242;27;20313;-66
2023/12/15 06:48:08;;;;;;;3.17;2.72;;;;;;;9.47;100.00;100068.78;5161865;27;20049;-66
2023/12/15 06:50:34;;;;;;;5.07;4.10;;;;;;;9.54;100.00;100069.00;5162592;27;20045;-66
2023/12/15 06:53:00;;;;;;;4.35;3.50;;;;;;;9.59;100.00;100064.13;5162179;27;20034;-64
2023/12/15 06:55:26;;;;;;;6.30;3.97;;;;;;;9.62;100.00;100066.47;5162022;27;20038;-66
2023/12/15 06:57:51;;;;;;;3.40;2.83;;;;;;;9.57;100.00;100074.84;5162066;27;20049;-66
2023/12/15 07:00:17;;;;;;;6.22;3.30;;;;;;;9.57;100.00;100082.78;5162303;27;20035;-66
2023/12/15 07:02:42;;;;;;;4.75;2.72;;;;;;;9.58;100.00;100091.53;5162101;27;20087;-66
2023/12/15 07:05:09;;;;;;;6.88;3.20;;;;;;;9.57;100.00;100084.59;5161393;27;20251;-65
2023/12/15 07:07:36;;;;;;;4.80;3.13;;;;;;;9.70;100.00;100090.34;5161738;27;20026;-66
2023/12/15 07:10:02;;;;;;;4.95;3.20;;;;;;;9.73;100.00;100086.59;5161849;27;20065;-66
2023/12/15 07:12:28;;;;;;;7.60;4.53;;;;;;;9.79;100.00;100100.03;5161246;27;20037;-64
2023/12/15 07:14:53;;;;;;;9.05;4.75;;;;;;;9.85;100.00;100101.25;5161345;27;20050;-66
2023/12/15 07:17:19;;;;;;;7.22;4.90;;;;;;;9.82;100.00;100101.56;5161647;27;20046;-66
2023/12/15 07:19:44;;;;;;;9.07;3.90;;;;;;;9.79;100.00;100094.75;5161336;27;20039;-66
2023/12/15 07:22:10;;;;;;;4.63;3.40;;;;;;;9.71;100.00;100096.47;5161470;27;20038;-66
2023/12/15 07:24:35;;;;;;;7.57;3.17;;;;;;;9.73;100.00;100110.38;5161726;27;20041;-66
2023/12/15 07:27:00;;;;;;;4.57;3.40;;;;;;;9.74;100.00;100109.41;5161681;27;20034;-66
2023/12/15 07:29:26;;;;;;;4.57;3.38;;;;;;;9.66;100.00;100104.00;5161686;27;20041;-66
2023/12/15 07:31:51;;;;;;;6.38;3.10;;;;;;;9.53;100.00;100101.72;5162144;27;20030;-65
2023/12/15 07:34:18;;;;;;;4.72;2.97;;;;;;;9.41;100.00;100106.38;5162033;27;20440;-66
2023/12/15 07:36:43;;;;;;;4.32;2.55;;;;;;;9.33;100.00;100113.31;5162220;27;20031;-66
2023/12/15 07:39:09;;;;;;;6.13;4.80;;;;;;;9.34;100.00;100123.75;5161492;27;20068;-64
2023/12/15 07:41:40;;;;;;;4.55;3.50;;;;;;;9.34;100.00;100117.63;5161733;27;20031;-64
2023/12/15 07:44:06;;;;;;;6.78;4.57;;;;;;;9.38;100.00;100137.53;5161465;27;20034;-66
2023/12/15 07:46:32;;;;;;;5.05;3.80;;;;;;;9.39;100.00;100136.56;5162035;27;20324;-64
2023/12/15 07:48:57;;;;;;;5.97;3.90;;;;;;;9.44;100.00;100147.53;5161216;27;20073;-66
2023/12/15 07:51:22;;;;;;;5.53;3.50;;;;;;;9.43;100.00;100144.06;5161803;27;20069;-65
2023/12/15 07:53:48;;;;;;;5.63;3.10;;;;;;;9.42;100.00;100149.47;5160991;27;20035;-64
2023/12/15 07:56:24;;;;;;;10.30;6.47;;;;;;;9.43;100.00;100149.34;5161810;27;20041;-66
2023/12/15 07:58:51;;;;;;;17.88;13.70;;;;;;;9.43;100.00;100159.09;5161013;27;20054;-66
2023/12/15 08:01:18;;;;;;;14.55;8.98;;;;;;;9.41;100.00;100169.78;5160373;27;20047;-64
2023/12/15 08:03:44;;;;;;;11.25;6.90;;;;;;;9.43;100.00;100159.09;5160584;27;20046;-64
2023/12/15 08:06:11;;;;;;;7.95;4.75;;;;;;;9.40;100.00;100159.38;5161053;27;20309;-66
2023/12/15 08:08:38;;;;;;;7.00;5.28;;;;;;;9.38;100.00;100175.38;5160639;27;20246;-66
2023/12/15 08:11:04;;;;;;;5.90;4.63;;;;;;;9.47;100.00;100181.59;5161004;27;20042;-66
2023/12/15 08:13:30;;;;;;;7.43;4.30;;;;;;;9.49;100.00;100190.22;5161105;27;20074;-66
2023/12/15 08:15:55;;;;;;;7.18;3.75;;;;;;;9.49;100.00;100187.56;5160373;27;20098;-66
2023/12/15 08:18:21;;;;;;;10.88;6.15;;;;;;;9.49;100.00;100198.16;5160809;27;20209;-66
2023/12/15 08:20:47;;;;;;;7.55;5.47;;;;;;;9.40;100.00;100193.72;5160911;27;20046;-66
2023/12/15 08:23:13;;;;;;;6.63;3.88;;;;;;;9.41;100.00;100204.16;5160588;27;20307;-66
2023/12/15 08:25:39;;;;;;;5.22;3.55;;;;;;;9.40;100.00;100212.22;5160602;27;20038;-64
2023/12/15 08:28:04;;;;;;;5.18;3.85;;;;;;;9.38;100.00;100219.47;5160043;27;20037;-66
2023/12/15 08:30:29;;;;;;;6.57;4.05;;;;;;;9.42;100.00;100223.50;5160704;27;20043;-64
2023/12/15 08:32:55;;;;;;;5.40;4.20;;;;;;;9.40;100.00;100226.28;5160109;27;20135;-65
2023/12/15 08:35:20;;;;;;;5.93;4.13;;;;;;;9.38;100.00;100224.75;5160725;27;20042;-65
2023/12/15 08:37:46;;;;;;;7.28;4.97;;;;;;;9.36;100.00;100219.56;5160901;27;20068;-66
2023/12/15 08:40:11;;;;;;;9.93;6.70;;;;;;;9.37;100.00;100216.00;5160028;27;20574;-65
2023/12/15 08:42:37;;;;;;;9.70;6.63;;;;;;;9.27;100.00;100231.84;5159936;27;20045;-64
2023/12/15 08:45:03;;;;;;;7.05;5.15;;;;;;;9.25;100.00;100240.88;5160224;27;20270;-66
2023/12/15 08:47:28;;;;;;;7.45;4.55;;;;;;;9.21;100.00;100235.03;5160430;27;20098;-64
2023/12/15 08:49:53;;;;;;;8.63;4.95;;;;;;;9.20;100.00;100251.88;5159937;27;20039;-66
2023/12/15 08:52:19;;;;;;;9.93;6.15;;;;;;;9.16;100.00;100254.94;5159410;27;20030;-64
2023/12/15 08:54:44;;;;;;;9.45;5.57;;;;;;;9.18;100.00;100258.28;5160690;27;20320;-66
2023/12/15 08:57:10;;;;;;;8.52;5.10;;;;;;;9.17;100.00;100260.06;5160287;27;20282;-66
2023/12/15 08:59:35;;;;;;;6.82;4.60;;;;;;;9.13;100.00;100263.97;5160262;27;20031;-66
2023/12/15 09:02:01;;;;;;;9.45;5.35;;;;;;;9.17;100.00;100259.25;5159496;27;20047;-66
2023/12/15 09:04:26;;;;;;;11.27;8.15;;;;;;;9.23;100.00;100263.97;5159916;27;20034;-66
2023/12/15 09:06:52;;;;;;;7.07;4.70;;;;;;;9.24;100.00;100263.00;5160243;27;20027;-64
2023/12/15 09:09:21;;;;;;;8.02;4.47;;;;;;;9.25;100.00;100259.38;5159826;27;20347;-64
2023/12/15 09:11:46;;;;;;;7.72;4.90;;;;;;;9.25;100.00;100259.38;5160374;27;20035;-66
2023/12/15 09:14:12;;;;;;;9.80;6.07;;;;;;;9.22;100.00;100265.78;5159857;27;20324;-66
2023/12/15 09:16:37;;;;;;;23.45;13.63;;;;;;;9.29;100.00;100264.25;5159820;27;20049;-66
2023/12/15 09:19:03;;;;;;;9.32;6.32;;;;;;;9.23;100.00;100266.59;5159735;27;20038;-66
2023/12/15 09:21:28;;;;;;;9.10;6.25;;;;;;;9.23;100.00;100269.25;5160108;27;20030;-65
2023/12/15 09:23:56;;;;;;;10.90;7.28;;;;;;;9.19;100.00;100276.63;5159607;27;20031;-66
2023/12/15 09:26:21;;;;;;;8.60;6.47;;;;;;;9.21;100.00;100279.97;5159724;27;20034;-63
2023/12/15 09:28:47;;;;;;;10.05;6.82;;;;;;;9.27;100.00;100276.75;5159709;27;20714;-64
2023/12/15 09:31:14;;;;;;;10.88;6.88;;;;;;;9.23;100.00;100269.25;5159725;27;20034;-64
2023/12/15 09:33:39;;;;;;;10.10;6.47;;;;;;;9.17;100.00;100275.94;5160109;27;20089;-64
2023/12/15 09:36:06;;;;;;;9.77;6.63;;;;;;;9.12;100.00;100272.88;5160445;27;20099;-64
2023/12/15 09:38:31;;;;;;;9.43;5.65;;;;;;;9.17;100.00;100275.09;5160102;27;20027;-65
2023/12/15 09:40:56;;;;;;;12.40;7.10;;;;;;;9.17;100.00;100283.84;5159913;27;20046;-66
2023/12/15 09:43:22;;;;;;;11.88;7.78;;;;;;;9.20;100.00;100280.09;5160061;27;20328;-64
2023/12/15 09:45:47;;;;;;;12.82;9.20;;;;;;;9.14;100.00;100280.66;5160193;27;20110;-65
2023/12/15 09:48:14;;;;;;;14.00;8.23;;;;;;;9.06;100.00;100280.53;5159668;27;20239;-65
2023/12/15 09:50:44;;;;;;;15.23;10.32;;;;;;;9.16;100.00;100290.13;5158899;27;20046;-66
2023/12/15 09:53:10;;;;;;;12.55;8.48;;;;;;;9.14;100.00;100284.13;5159024;27;20031;-64
2023/12/15 09:55:36;;;;;;;14.18;9.32;;;;;;;9.14;100.00;100284.13;5159444;27;20043;-66
2023/12/15 09:58:01;;;;;;;15.27;9.63;;;;;;;9.14;100.00;100291.22;5159357;27;20027;-66
2023/12/15 10:00:28;;;;;;;17.55;9.55;;;;;;;9.15;100.00;100291.09;5158754;27;20038;-66
2023/12/15 10:02:53;;;;;;;13.93;8.15;;;;;;;9.18;100.00;100280.25;5161378;27;20046;-66
2023/12/15 10:05:21;;;;;;;16.10;10.50;;;;;;;9.12;100.00;100290.53;5162682;27;20165;-65
2023/12/15 10:07:47;;;;;;;9.80;7.15;;;;;;;9.10;100.00;100285.41;5162853;27;20027;-64
2023/12/15 10:10:12;;;;;;;8.20;6.38;;;;;;;9.07;100.00;100292.75;5162438;27;20033;-66
2023/12/15 10:12:37;;;;;;;9.77;6.70;;;;;;;9.08;100.00;100294.44;5162108;27;20033;-64
2023/12/15 10:15:06;;;;;;;8.05;5.13;;;;;;;9.02;100.00;100297.63;5162030;27;20039;-64
2023/12/15 10:17:32;;;;;;;9.73;4.97;;;;;;;8.98;100.00;100299.72;5162170;27;20034;-66
2023/12/15 10:20:08;;;;;;;10.93;5.90;;;;;;;8.91;100.00;100310.00;5162035;27;20034;-64
2023/12/15 10:22:34;;;;;;;5.38;3.85;;;;;;;8.90;100.00;100305.69;5162252;27;20087;-64
2023/12/15 10:24:59;;;;;;;8.02;4.57;;;;;;;8.86;100.00;100303.44;5162331;27;20039;-64
2023/12/15 10:27:25;;;;;;;11.73;6.72;;;;;;;8.80;100.00;100312.75;5162879;27;20349;-66
2023/12/15 10:29:51;;;;;;;8.30;5.18;;;;;;;8.79;100.00;100315.53;5162988;27;20046;-64
2023/12/15 10:32:16;;;;;;;5.03;3.33;;;;;;;8.83;100.00;100322.22;5162883;27;20090;-67
2023/12/15 10:34:42;;;;;;;5.88;3.20;;;;;;;8.86;100.00;100333.34;5163414;27;20033;-62
2023/12/15 10:37:08;;;;;;;5.05;2.80;;;;;;;8.83;100.00;100317.75;5163308;27;20023;-64
2023/12/15 10:39:33;;;;;;;4.70;2.45;;;;;;;8.83;100.00;100314.28;5163070;27;20083;-66
2023/12/15 10:41:59;;;;;;;3.92;3.28;;;;;;;8.90;100.00;100328.63;5162410;27;20050;-66
2023/12/15 10:44:27;;;;;;;6.65;4.20;;;;;;;8.88;100.00;100323.47;5162083;27;20288;-64
2023/12/15 10:46:53;;;;;;;4.72;3.90;;;;;;;8.90;100.00;100324.16;5161767;27;20078;-66
2023/12/15 10:49:19;;;;;;;5.88;5.15;;;;;;;8.90;100.00;100336.53;5161763;27;20193;-66
2023/12/15 10:51:47;;;;;;;3.30;2.10;;;;;;;8.77;100.00;100330.69;5161481;27;20042;-62
2023/12/15 10:54:15;;;;;;;2.22;1.88;;;;;;;8.72;100.00;100348.75;5161750;27;20042;-63
2023/12/15 10:56:40;;;;;;;5.90;2.38;;;;;;;8.71;100.00;100349.69;5161599;27;20321;-66
2023/12/15 10:59:07;;;;;;;2.08;1.77;;;;;;;8.68;100.00;100350.81;5162252;27;20041;-64
2023/12/15 11:01:34;;;;;;;1.90;1.77;;;;;;;8.66;100.00;100355.38;5161405;27;20057;-64
2023/12/15 11:04:00;;;;;;;3.00;1.95;;;;;;;8.60;100.00;100361.22;5161899;27;20041;-65
2023/12/15 11:06:34;;;;;;;3.05;2.10;;;;;;;8.60;100.00;100353.28;5162256;27;20127;-64
2023/12/15 11:09:04;;;;;;;7.78;5.20;;;;;;;8.63;100.00;100364.41;5162356;27;20076;-66
2023/12/15 11:11:30;;;;;;;6.15;4.60;;;;;;;8.60;100.00;100356.75;5162314;27;20078;-66
2023/12/15 11:14:04;;;;;;;2.67;2.08;;;;;;;8.64;100.00;100359.97;5160609;27;20066;-66
2023/12/15 11:16:30;;;;;;;;;;;;;;;8.68;100.00;100356.09;5162316;27;20031;-66
2023/12/15 11:18:57;;;;;;;6.03;2.65;;;;;;;8.56;100.00;100363.28;5161107;27;19919;-64
2023/12/15 11:21:23;;;;;;;4.80;2.70;;;;;;;8.60;100.00;100375.25;5160986;27;20340;-65
2023/12/15 11:24:07;;;;;;;4.93;2.42;;;;;;;8.58;100.00;100369.25;5161518;27;20052;-64